sensor_id;sensor_type;location;lat;lon;timestamp;P1;durP1;ratioP1;P2;durP2;ratioP2
20324;SDS011;10320;49.482;11.256;2023-04-25T00:01:14;4.00;;;3.60;;
20324;SDS011;10320;49.482;11.256;2023-04-25T00:03:40;4.00;;;3.60;;
20324;SDS011;10320;49.482;11.256;2023-04-25T00:06:06;4.20;;;3.80;;
20324;SDS011;10320;49.482;11.256;2023-04-25T00:08:33;4.00;;;3.70;;
20324;SDS011;10320;49.482;11.256;2023-04-25T00:11:00;4.47;;;4.07;;
20324;SDS011;10320;49.482;11.256;2023-04-25T00:13:29;3.77;;;3.47;;
20324;SDS011;10320;49.482;11.256;2023-04-25T00:15:55;4.10;;;3.63;;
20324;SDS011;10320;49.482;11.256;2023-04-25T00:18:21;4.87;;;3.47;;
20324;SDS011;10320;49.482;11.256;2023-04-25T00:20:47;3.40;;;3.07;;
20324;SDS011;10320;49.482;11.256;2023-04-25T00:23:14;3.60;;;3.30;;
20324;SDS011;10320;49.482;11.256;2023-04-25T00:25:46;3.60;;;3.30;;
20324;SDS011;10320;49.482;11.256;2023-04-25T00:28:12;3.67;;;3.37;;
20324;SDS011;10320;49.482;11.256;2023-04-25T00:30:39;3.60;;;3.30;;
20324;SDS011;10320;49.482;11.256;2023-04-25T00:33:05;3.80;;;3.37;;
20324;SDS011;10320;49.482;11.256;2023-04-25T00:35:31;6.93;;;3.40;;
20324;SDS011;10320;49.482;11.256;2023-04-25T00:37:57;4.50;;;4.00;;
20324;SDS011;10320;49.482;11.256;2023-04-25T00:40:23;5.83;;;4.10;;
20324;SDS011;10320;49.482;11.256;2023-04-25T00:42:50;5.03;;;4.60;;
20324;SDS011;10320;49.482;11.256;2023-04-25T00:45:17;4.87;;;4.33;;
20324;SDS011;10320;49.482;11.256;2023-04-25T00:47:43;5.10;;;4.60;;
20324;SDS011;10320;49.482;11.256;2023-04-25T00:50:09;4.90;;;4.20;;
20324;SDS011;10320;49.482;11.256;2023-04-25T00:52:36;4.20;;;3.80;;
20324;SDS011;10320;49.482;11.256;2023-04-25T00:55:03;4.53;;;3.97;;
20324;SDS011;10320;49.482;11.256;2023-04-25T00:57:30;4.77;;;4.37;;
20324;SDS011;10320;49.482;11.256;2023-04-25T00:59:56;4.50;;;4.10;;
20324;SDS011;10320;49.482;11.256;2023-04-25T01:02:22;5.30;;;4.80;;
20324;SDS011;10320;49.482;11.256;2023-04-25T01:04:48;4.90;;;4.50;;
20324;SDS011;10320;49.482;11.256;2023-04-25T01:07:14;4.87;;;4.37;;
20324;SDS011;10320;49.482;11.256;2023-04-25T01:09:41;5.30;;;4.80;;
20324;SDS011;10320;49.482;11.256;2023-04-25T01:12:07;4.97;;;4.47;;
20324;SDS011;10320;49.482;11.256;2023-04-25T01:14:33;5.27;;;4.73;;
20324;SDS011;10320;49.482;11.256;2023-04-25T01:16:59;6.33;;;4.97;;
20324;SDS011;10320;49.482;11.256;2023-04-25T01:19:25;5.20;;;4.70;;
20324;SDS011;10320;49.482;11.256;2023-04-25T01:21:51;5.50;;;4.63;;
20324;SDS011;10320;49.482;11.256;2023-04-25T01:24:17;5.67;;;5.17;;
20324;SDS011;10320;49.482;11.256;2023-04-25T01:26:43;6.43;;;5.20;;
20324;SDS011;10320;49.482;11.256;2023-04-25T01:29:14;5.90;;;5.40;;
20324;SDS011;10320;49.482;11.256;2023-04-25T01:31:40;6.03;;;5.27;;
20324;SDS011;10320;49.482;11.256;2023-04-25T01:34:06;5.17;;;4.67;;
20324;SDS011;10320;49.482;11.256;2023-04-25T01:36:32;6.70;;;6.00;;
20324;SDS011;10320;49.482;11.256;2023-04-25T01:39:00;7.60;;;5.20;;
20324;SDS011;10320;49.482;11.256;2023-04-25T01:41:26;5.63;;;5.13;;
20324;SDS011;10320;49.482;11.256;2023-04-25T01:43:52;5.97;;;5.37;;
20324;SDS011;10320;49.482;11.256;2023-04-25T01:46:18;6.20;;;5.60;;
20324;SDS011;10320;49.482;11.256;2023-04-25T01:48:45;6.17;;;5.50;;
20324;SDS011;10320;49.482;11.256;2023-04-25T01:51:11;5.87;;;5.27;;
20324;SDS011;10320;49.482;11.256;2023-04-25T01:53:37;5.83;;;4.90;;
20324;SDS011;10320;49.482;11.256;2023-04-25T01:56:04;6.50;;;5.23;;
20324;SDS011;10320;49.482;11.256;2023-04-25T01:58:30;5.90;;;5.30;;
20324;SDS011;10320;49.482;11.256;2023-04-25T02:00:56;6.10;;;5.50;;
20324;SDS011;10320;49.482;11.256;2023-04-25T02:03:22;6.80;;;5.73;;
20324;SDS011;10320;49.482;11.256;2023-04-25T02:05:48;6.43;;;5.73;;
20324;SDS011;10320;49.482;11.256;2023-04-25T02:08:16;5.97;;;5.27;;
20324;SDS011;10320;49.482;11.256;2023-04-25T02:10:43;6.40;;;5.80;;
20324;SDS011;10320;49.482;11.256;2023-04-25T02:13:09;5.90;;;5.40;;
20324;SDS011;10320;49.482;11.256;2023-04-25T02:15:35;6.80;;;5.50;;
20324;SDS011;10320;49.482;11.256;2023-04-25T02:18:01;6.13;;;5.60;;
20324;SDS011;10320;49.482;11.256;2023-04-25T02:20:28;6.63;;;5.97;;
20324;SDS011;10320;49.482;11.256;2023-04-25T02:22:55;5.70;;;5.20;;
20324;SDS011;10320;49.482;11.256;2023-04-25T02:25:21;5.83;;;5.20;;
20324;SDS011;10320;49.482;11.256;2023-04-25T02:27:47;6.50;;;5.90;;
20324;SDS011;10320;49.482;11.256;2023-04-25T02:30:13;6.23;;;5.20;;
20324;SDS011;10320;49.482;11.256;2023-04-25T02:32:40;5.83;;;5.23;;
20324;SDS011;10320;49.482;11.256;2023-04-25T02:35:06;5.93;;;5.33;;
20324;SDS011;10320;49.482;11.256;2023-04-25T02:37:33;6.47;;;5.47;;
20324;SDS011;10320;49.482;11.256;2023-04-25T02:39:59;5.90;;;5.30;;
20324;SDS011;10320;49.482;11.256;2023-04-25T02:42:26;5.83;;;5.10;;
20324;SDS011;10320;49.482;11.256;2023-04-25T02:44:52;5.70;;;4.80;;
20324;SDS011;10320;49.482;11.256;2023-04-25T02:47:18;5.43;;;4.93;;
20324;SDS011;10320;49.482;11.256;2023-04-25T02:49:44;6.03;;;5.43;;
20324;SDS011;10320;49.482;11.256;2023-04-25T02:52:10;6.10;;;5.43;;
20324;SDS011;10320;49.482;11.256;2023-04-25T02:54:36;6.20;;;5.70;;
20324;SDS011;10320;49.482;11.256;2023-04-25T02:57:02;6.67;;;5.80;;
20324;SDS011;10320;49.482;11.256;2023-04-25T02:59:28;7.37;;;6.53;;
20324;SDS011;10320;49.482;11.256;2023-04-25T03:01:54;6.80;;;6.10;;
20324;SDS011;10320;49.482;11.256;2023-04-25T03:04:20;6.70;;;5.63;;
20324;SDS011;10320;49.482;11.256;2023-04-25T03:06:48;7.60;;;6.80;;
20324;SDS011;10320;49.482;11.256;2023-04-25T03:09:14;7.23;;;6.50;;
20324;SDS011;10320;49.482;11.256;2023-04-25T03:11:40;8.00;;;7.20;;
20324;SDS011;10320;49.482;11.256;2023-04-25T03:14:06;7.80;;;7.00;;
20324;SDS011;10320;49.482;11.256;2023-04-25T03:16:33;7.90;;;7.13;;
20324;SDS011;10320;49.482;11.256;2023-04-25T03:18:59;8.23;;;7.40;;
20324;SDS011;10320;49.482;11.256;2023-04-25T03:21:25;7.90;;;7.20;;
20324;SDS011;10320;49.482;11.256;2023-04-25T03:23:51;8.27;;;7.27;;
20324;SDS011;10320;49.482;11.256;2023-04-25T03:26:17;8.33;;;7.53;;
20324;SDS011;10320;49.482;11.256;2023-04-25T03:28:43;8.00;;;7.20;;
20324;SDS011;10320;49.482;11.256;2023-04-25T03:31:09;8.47;;;7.60;;
20324;SDS011;10320;49.482;11.256;2023-04-25T03:33:35;8.60;;;7.80;;
20324;SDS011;10320;49.482;11.256;2023-04-25T03:36:01;8.43;;;7.43;;
20324;SDS011;10320;49.482;11.256;2023-04-25T03:38:27;8.97;;;8.00;;
20324;SDS011;10320;49.482;11.256;2023-04-25T03:40:53;8.43;;;7.63;;
20324;SDS011;10320;49.482;11.256;2023-04-25T03:43:21;8.10;;;7.30;;
20324;SDS011;10320;49.482;11.256;2023-04-25T03:45:47;8.30;;;7.43;;
20324;SDS011;10320;49.482;11.256;2023-04-25T03:48:13;9.60;;;7.70;;
20324;SDS011;10320;49.482;11.256;2023-04-25T03:50:39;7.77;;;7.07;;
20324;SDS011;10320;49.482;11.256;2023-04-25T03:53:05;8.90;;;8.00;;
20324;SDS011;10320;49.482;11.256;2023-04-25T03:55:31;8.70;;;7.83;;
20324;SDS011;10320;49.482;11.256;2023-04-25T03:57:57;9.07;;;8.17;;
20324;SDS011;10320;49.482;11.256;2023-04-25T04:00:24;9.57;;;8.50;;
20324;SDS011;10320;49.482;11.256;2023-04-25T04:02:50;9.63;;;8.70;;
20324;SDS011;10320;49.482;11.256;2023-04-25T04:05:16;9.30;;;8.40;;
20324;SDS011;10320;49.482;11.256;2023-04-25T04:07:42;9.20;;;8.17;;
20324;SDS011;10320;49.482;11.256;2023-04-25T04:10:11;8.07;;;7.27;;
20324;SDS011;10320;49.482;11.256;2023-04-25T04:12:38;9.43;;;8.13;;
20324;SDS011;10320;49.482;11.256;2023-04-25T04:15:04;8.93;;;8.07;;
20324;SDS011;10320;49.482;11.256;2023-04-25T04:17:31;9.27;;;8.27;;
20324;SDS011;10320;49.482;11.256;2023-04-25T04:19:57;8.60;;;7.47;;
20324;SDS011;10320;49.482;11.256;2023-04-25T04:22:23;9.33;;;7.77;;
20324;SDS011;10320;49.482;11.256;2023-04-25T04:24:49;7.73;;;7.03;;
20324;SDS011;10320;49.482;11.256;2023-04-25T04:27:19;8.57;;;7.73;;
20324;SDS011;10320;49.482;11.256;2023-04-25T04:29:46;7.20;;;6.50;;
20324;SDS011;10320;49.482;11.256;2023-04-25T04:32:13;7.73;;;6.90;;
20324;SDS011;10320;49.482;11.256;2023-04-25T04:34:39;7.60;;;6.73;;
20324;SDS011;10320;49.482;11.256;2023-04-25T04:37:06;8.07;;;6.83;;
20324;SDS011;10320;49.482;11.256;2023-04-25T04:39:35;7.20;;;6.50;;
20324;SDS011;10320;49.482;11.256;2023-04-25T04:42:02;7.63;;;6.63;;
20324;SDS011;10320;49.482;11.256;2023-04-25T04:44:28;7.00;;;6.30;;
20324;SDS011;10320;49.482;11.256;2023-04-25T04:46:58;7.53;;;6.83;;
20324;SDS011;10320;49.482;11.256;2023-04-25T04:49:24;7.20;;;6.53;;
20324;SDS011;10320;49.482;11.256;2023-04-25T04:51:50;7.17;;;6.47;;
20324;SDS011;10320;49.482;11.256;2023-04-25T04:54:16;7.37;;;6.50;;
20324;SDS011;10320;49.482;11.256;2023-04-25T04:56:42;7.97;;;6.73;;
20324;SDS011;10320;49.482;11.256;2023-04-25T04:59:08;8.07;;;6.90;;
20324;SDS011;10320;49.482;11.256;2023-04-25T05:01:34;7.67;;;6.87;;
20324;SDS011;10320;49.482;11.256;2023-04-25T05:04:01;7.43;;;6.73;;
20324;SDS011;10320;49.482;11.256;2023-04-25T05:06:28;7.93;;;7.23;;
20324;SDS011;10320;49.482;11.256;2023-04-25T05:08:54;7.97;;;6.90;;
20324;SDS011;10320;49.482;11.256;2023-04-25T05:11:21;7.73;;;7.03;;
20324;SDS011;10320;49.482;11.256;2023-04-25T05:13:47;7.73;;;7.00;;
20324;SDS011;10320;49.482;11.256;2023-04-25T05:16:13;7.57;;;6.77;;
20324;SDS011;10320;49.482;11.256;2023-04-25T05:18:39;8.47;;;7.40;;
20324;SDS011;10320;49.482;11.256;2023-04-25T05:21:06;8.37;;;7.57;;
20324;SDS011;10320;49.482;11.256;2023-04-25T05:23:32;9.03;;;8.13;;
20324;SDS011;10320;49.482;11.256;2023-04-25T05:25:58;9.30;;;8.33;;
20324;SDS011;10320;49.482;11.256;2023-04-25T05:28:24;9.33;;;8.43;;
20324;SDS011;10320;49.482;11.256;2023-04-25T05:30:50;9.50;;;7.93;;
20324;SDS011;10320;49.482;11.256;2023-04-25T05:33:17;8.10;;;7.30;;
20324;SDS011;10320;49.482;11.256;2023-04-25T05:35:43;8.50;;;7.70;;
20324;SDS011;10320;49.482;11.256;2023-04-25T05:38:09;8.20;;;7.40;;
20324;SDS011;10320;49.482;11.256;2023-04-25T05:40:35;7.77;;;7.07;;
20324;SDS011;10320;49.482;11.256;2023-04-25T05:43:01;7.63;;;6.83;;
20324;SDS011;10320;49.482;11.256;2023-04-25T05:45:27;7.60;;;6.90;;
20324;SDS011;10320;49.482;11.256;2023-04-25T05:47:53;6.90;;;6.30;;
20324;SDS011;10320;49.482;11.256;2023-04-25T05:50:19;7.63;;;6.27;;
20324;SDS011;10320;49.482;11.256;2023-04-25T05:52:46;6.77;;;6.03;;
20324;SDS011;10320;49.482;11.256;2023-04-25T05:55:12;6.57;;;5.97;;
20324;SDS011;10320;49.482;11.256;2023-04-25T05:57:38;7.40;;;6.70;;
20324;SDS011;10320;49.482;11.256;2023-04-25T06:00:07;7.40;;;6.73;;
20324;SDS011;10320;49.482;11.256;2023-04-25T06:02:34;6.30;;;5.80;;
20324;SDS011;10320;49.482;11.256;2023-04-25T06:05:00;6.73;;;6.10;;
20324;SDS011;10320;49.482;11.256;2023-04-25T06:07:28;6.73;;;6.03;;
20324;SDS011;10320;49.482;11.256;2023-04-25T06:09:55;7.33;;;6.63;;
20324;SDS011;10320;49.482;11.256;2023-04-25T06:12:21;6.90;;;6.30;;
20324;SDS011;10320;49.482;11.256;2023-04-25T06:14:47;7.40;;;6.70;;
20324;SDS011;10320;49.482;11.256;2023-04-25T06:17:12;7.07;;;6.47;;
20324;SDS011;10320;49.482;11.256;2023-04-25T06:19:38;6.73;;;6.13;;
20324;SDS011;10320;49.482;11.256;2023-04-25T06:22:04;6.97;;;6.30;;
20324;SDS011;10320;49.482;11.256;2023-04-25T06:24:29;7.00;;;6.40;;
20324;SDS011;10320;49.482;11.256;2023-04-25T06:26:55;7.00;;;6.40;;
20324;SDS011;10320;49.482;11.256;2023-04-25T06:29:21;7.00;;;6.40;;
20324;SDS011;10320;49.482;11.256;2023-04-25T06:31:46;7.23;;;6.53;;
20324;SDS011;10320;49.482;11.256;2023-04-25T06:34:12;6.93;;;6.30;;
20324;SDS011;10320;49.482;11.256;2023-04-25T06:36:38;6.67;;;5.97;;
20324;SDS011;10320;49.482;11.256;2023-04-25T06:39:03;7.00;;;6.30;;
20324;SDS011;10320;49.482;11.256;2023-04-25T06:41:29;8.03;;;7.23;;
20324;SDS011;10320;49.482;11.256;2023-04-25T06:43:55;7.80;;;6.97;;
20324;SDS011;10320;49.482;11.256;2023-04-25T06:46:21;7.70;;;6.70;;
20324;SDS011;10320;49.482;11.256;2023-04-25T06:48:46;7.43;;;6.70;;
20324;SDS011;10320;49.482;11.256;2023-04-25T06:51:12;7.53;;;6.83;;
20324;SDS011;10320;49.482;11.256;2023-04-25T06:53:40;7.97;;;7.17;;
20324;SDS011;10320;49.482;11.256;2023-04-25T06:56:06;7.57;;;6.87;;
20324;SDS011;10320;49.482;11.256;2023-04-25T06:58:31;8.37;;;7.13;;
20324;SDS011;10320;49.482;11.256;2023-04-25T07:00:57;8.17;;;7.07;;
20324;SDS011;10320;49.482;11.256;2023-04-25T07:03:23;7.53;;;6.83;;
20324;SDS011;10320;49.482;11.256;2023-04-25T07:05:49;8.77;;;7.03;;
20324;SDS011;10320;49.482;11.256;2023-04-25T07:08:15;8.10;;;7.30;;
20324;SDS011;10320;49.482;11.256;2023-04-25T07:10:41;8.50;;;7.70;;
20324;SDS011;10320;49.482;11.256;2023-04-25T07:13:07;8.37;;;7.57;;
20324;SDS011;10320;49.482;11.256;2023-04-25T07:15:32;9.20;;;8.20;;
20324;SDS011;10320;49.482;11.256;2023-04-25T07:17:58;9.33;;;8.27;;
20324;SDS011;10320;49.482;11.256;2023-04-25T07:20:24;8.23;;;7.40;;
20324;SDS011;10320;49.482;11.256;2023-04-25T07:22:50;8.13;;;7.33;;
20324;SDS011;10320;49.482;11.256;2023-04-25T07:25:16;8.03;;;7.33;;
20324;SDS011;10320;49.482;11.256;2023-04-25T07:27:42;8.60;;;7.80;;
20324;SDS011;10320;49.482;11.256;2023-04-25T07:30:07;8.60;;;7.70;;
20324;SDS011;10320;49.482;11.256;2023-04-25T07:32:34;8.57;;;7.77;;
20324;SDS011;10320;49.482;11.256;2023-04-25T07:34:59;8.13;;;7.30;;
20324;SDS011;10320;49.482;11.256;2023-04-25T07:37:26;8.13;;;7.37;;
20324;SDS011;10320;49.482;11.256;2023-04-25T07:39:52;8.50;;;7.70;;
20324;SDS011;10320;49.482;11.256;2023-04-25T07:42:18;8.30;;;7.47;;
20324;SDS011;10320;49.482;11.256;2023-04-25T07:44:43;7.23;;;6.50;;
20324;SDS011;10320;49.482;11.256;2023-04-25T07:47:09;4.40;;;4.00;;
20324;SDS011;10320;49.482;11.256;2023-04-25T07:49:36;4.40;;;3.60;;
20324;SDS011;10320;49.482;11.256;2023-04-25T07:52:02;4.70;;;4.00;;
20324;SDS011;10320;49.482;11.256;2023-04-25T07:54:28;4.97;;;4.47;;
20324;SDS011;10320;49.482;11.256;2023-04-25T07:56:55;5.17;;;4.67;;
20324;SDS011;10320;49.482;11.256;2023-04-25T07:59:21;4.57;;;4.17;;
20324;SDS011;10320;49.482;11.256;2023-04-25T08:01:47;7.60;;;5.03;;
20324;SDS011;10320;49.482;11.256;2023-04-25T08:04:13;5.77;;;5.07;;
20324;SDS011;10320;49.482;11.256;2023-04-25T08:06:39;5.37;;;4.83;;
20324;SDS011;10320;49.482;11.256;2023-04-25T08:09:05;6.90;;;4.90;;
20324;SDS011;10320;49.482;11.256;2023-04-25T08:11:33;5.50;;;4.97;;
20324;SDS011;10320;49.482;11.256;2023-04-25T08:13:59;5.40;;;4.87;;
20324;SDS011;10320;49.482;11.256;2023-04-25T08:16:25;5.47;;;4.97;;
20324;SDS011;10320;49.482;11.256;2023-04-25T08:18:51;5.07;;;4.60;;
20324;SDS011;10320;49.482;11.256;2023-04-25T08:21:17;4.97;;;4.40;;
20324;SDS011;10320;49.482;11.256;2023-04-25T08:23:43;4.07;;;3.50;;
20324;SDS011;10320;49.482;11.256;2023-04-25T08:26:08;4.07;;;3.43;;
20324;SDS011;10320;49.482;11.256;2023-04-25T08:28:34;4.43;;;4.03;;
20324;SDS011;10320;49.482;11.256;2023-04-25T08:31:00;4.20;;;3.80;;
20324;SDS011;10320;49.482;11.256;2023-04-25T08:33:25;3.90;;;3.53;;
20324;SDS011;10320;49.482;11.256;2023-04-25T08:35:51;5.37;;;3.90;;
20324;SDS011;10320;49.482;11.256;2023-04-25T08:38:17;4.23;;;3.73;;
20324;SDS011;10320;49.482;11.256;2023-04-25T08:40:43;5.43;;;3.83;;
20324;SDS011;10320;49.482;11.256;2023-04-25T08:43:09;4.20;;;3.77;;
20324;SDS011;10320;49.482;11.256;2023-04-25T08:45:40;3.67;;;3.00;;
20324;SDS011;10320;49.482;11.256;2023-04-25T08:48:13;4.50;;;3.57;;
20324;SDS011;10320;49.482;11.256;2023-04-25T08:50:50;5.13;;;3.73;;
20324;SDS011;10320;49.482;11.256;2023-04-25T08:53:18;3.63;;;3.30;;
20324;SDS011;10320;49.482;11.256;2023-04-25T08:55:53;3.63;;;3.30;;
20324;SDS011;10320;49.482;11.256;2023-04-25T08:58:20;4.97;;;3.70;;
20324;SDS011;10320;49.482;11.256;2023-04-25T09:00:46;5.50;;;4.10;;
20324;SDS011;10320;49.482;11.256;2023-04-25T09:03:13;4.40;;;3.93;;
20324;SDS011;10320;49.482;11.256;2023-04-25T09:05:40;5.47;;;4.20;;
20324;SDS011;10320;49.482;11.256;2023-04-25T09:08:06;5.10;;;4.37;;
20324;SDS011;10320;49.482;11.256;2023-04-25T09:10:32;5.33;;;4.63;;
20324;SDS011;10320;49.482;11.256;2023-04-25T09:15:28;4.63;;;4.23;;
20324;SDS011;10320;49.482;11.256;2023-04-25T09:17:55;6.43;;;4.27;;
20324;SDS011;10320;49.482;11.256;2023-04-25T09:20:21;4.70;;;4.30;;
20324;SDS011;10320;49.482;11.256;2023-04-25T09:22:47;5.13;;;4.40;;
20324;SDS011;10320;49.482;11.256;2023-04-25T09:25:12;4.70;;;4.30;;
20324;SDS011;10320;49.482;11.256;2023-04-25T09:27:51;5.40;;;4.37;;
20324;SDS011;10320;49.482;11.256;2023-04-25T09:30:18;5.07;;;4.67;;
20324;SDS011;10320;49.482;11.256;2023-04-25T09:32:55;4.87;;;4.47;;
20324;SDS011;10320;49.482;11.256;2023-04-25T09:35:25;5.60;;;4.87;;
20324;SDS011;10320;49.482;11.256;2023-04-25T09:37:51;6.33;;;5.23;;
20324;SDS011;10320;49.482;11.256;2023-04-25T09:40:17;5.87;;;5.03;;
20324;SDS011;10320;49.482;11.256;2023-04-25T09:42:43;6.20;;;5.00;;
20324;SDS011;10320;49.482;11.256;2023-04-25T09:45:09;6.80;;;5.23;;
20324;SDS011;10320;49.482;11.256;2023-04-25T09:47:38;6.77;;;5.13;;
20324;SDS011;10320;49.482;11.256;2023-04-25T09:50:05;5.07;;;4.57;;
20324;SDS011;10320;49.482;11.256;2023-04-25T09:52:42;5.80;;;5.17;;
20324;SDS011;10320;49.482;11.256;2023-04-25T09:55:08;6.40;;;5.00;;
20324;SDS011;10320;49.482;11.256;2023-04-25T09:57:34;5.30;;;4.80;;
20324;SDS011;10320;49.482;11.256;2023-04-25T10:00:04;5.03;;;4.43;;
20324;SDS011;10320;49.482;11.256;2023-04-25T10:02:35;4.47;;;4.07;;
20324;SDS011;10320;49.482;11.256;2023-04-25T10:05:05;4.50;;;4.10;;
20324;SDS011;10320;49.482;11.256;2023-04-25T10:07:32;4.73;;;4.20;;
20324;SDS011;10320;49.482;11.256;2023-04-25T10:10:01;4.30;;;3.90;;
20324;SDS011;10320;49.482;11.256;2023-04-25T10:12:29;4.20;;;3.80;;
20324;SDS011;10320;49.482;11.256;2023-04-25T10:14:58;4.57;;;3.67;;
20324;SDS011;10320;49.482;11.256;2023-04-25T10:17:26;3.80;;;3.33;;
20324;SDS011;10320;49.482;11.256;2023-04-25T10:19:54;4.00;;;3.63;;
20324;SDS011;10320;49.482;11.256;2023-04-25T10:22:37;4.93;;;4.10;;
20324;SDS011;10320;49.482;11.256;2023-04-25T10:25:07;4.77;;;4.23;;
20324;SDS011;10320;49.482;11.256;2023-04-25T10:27:35;4.10;;;3.70;;
20324;SDS011;10320;49.482;11.256;2023-04-25T10:30:03;3.77;;;3.47;;
20324;SDS011;10320;49.482;11.256;2023-04-25T10:32:31;3.53;;;3.20;;
20324;SDS011;10320;49.482;11.256;2023-04-25T10:35:09;3.00;;;2.80;;
20324;SDS011;10320;49.482;11.256;2023-04-25T10:40:37;3.87;;;3.33;;
20324;SDS011;10320;49.482;11.256;2023-04-25T10:43:49;3.37;;;3.07;;
20324;SDS011;10320;49.482;11.256;2023-04-25T10:45:59;3.10;;;2.53;;
20324;SDS011;10320;49.482;11.256;2023-04-25T10:48:26;2.80;;;2.60;;
20324;SDS011;10320;49.482;11.256;2023-04-25T10:56:26;3.30;;;2.17;;
20324;SDS011;10320;49.482;11.256;2023-04-25T10:59:03;2.13;;;1.90;;
20324;SDS011;10320;49.482;11.256;2023-04-25T11:01:35;3.27;;;1.63;;
20324;SDS011;10320;49.482;11.256;2023-04-25T11:04:01;4.33;;;2.10;;
20324;SDS011;10320;49.482;11.256;2023-04-25T11:09:02;1.70;;;1.60;;
20324;SDS011;10320;49.482;11.256;2023-04-25T11:11:28;2.47;;;1.90;;
20324;SDS011;10320;49.482;11.256;2023-04-25T11:13:54;2.57;;;1.97;;
20324;SDS011;10320;49.482;11.256;2023-04-25T11:16:20;2.47;;;2.03;;
20324;SDS011;10320;49.482;11.256;2023-04-25T11:18:50;4.23;;;2.13;;
20324;SDS011;10320;49.482;11.256;2023-04-25T11:21:16;4.00;;;2.47;;
20324;SDS011;10320;49.482;11.256;2023-04-25T11:23:44;2.37;;;2.17;;
20324;SDS011;10320;49.482;11.256;2023-04-25T11:26:12;2.60;;;2.13;;
20324;SDS011;10320;49.482;11.256;2023-04-25T11:28:38;2.77;;;2.57;;
20324;SDS011;10320;49.482;11.256;2023-04-25T11:31:04;2.67;;;2.47;;
20324;SDS011;10320;49.482;11.256;2023-04-25T11:33:30;3.90;;;2.37;;
20324;SDS011;10320;49.482;11.256;2023-04-25T11:35:56;3.63;;;2.47;;
20324;SDS011;10320;49.482;11.256;2023-04-25T11:38:22;3.57;;;2.90;;
20324;SDS011;10320;49.482;11.256;2023-04-25T11:40:50;3.00;;;2.53;;
20324;SDS011;10320;49.482;11.256;2023-04-25T11:43:18;2.03;;;1.83;;
20324;SDS011;10320;49.482;11.256;2023-04-25T11:45:46;1.87;;;1.77;;
20324;SDS011;10320;49.482;11.256;2023-04-25T11:48:13;2.07;;;1.87;;
20324;SDS011;10320;49.482;11.256;2023-04-25T11:50:39;2.17;;;1.80;;
20324;SDS011;10320;49.482;11.256;2023-04-25T11:53:05;2.90;;;2.00;;
20324;SDS011;10320;49.482;11.256;2023-04-25T11:55:32;2.30;;;2.10;;
20324;SDS011;10320;49.482;11.256;2023-04-25T11:57:59;1.93;;;1.70;;
20324;SDS011;10320;49.482;11.256;2023-04-25T12:00:25;2.07;;;1.80;;
20324;SDS011;10320;49.482;11.256;2023-04-25T12:02:55;1.83;;;1.70;;
20324;SDS011;10320;49.482;11.256;2023-04-25T12:05:28;2.83;;;1.60;;
20324;SDS011;10320;49.482;11.256;2023-04-25T12:07:55;1.50;;;1.40;;
20324;SDS011;10320;49.482;11.256;2023-04-25T12:10:21;1.60;;;1.50;;
20324;SDS011;10320;49.482;11.256;2023-04-25T12:12:49;1.97;;;1.50;;
20324;SDS011;10320;49.482;11.256;2023-04-25T12:15:16;1.40;;;1.30;;
20324;SDS011;10320;49.482;11.256;2023-04-25T12:17:46;1.70;;;1.60;;
20324;SDS011;10320;49.482;11.256;2023-04-25T12:20:18;1.60;;;1.50;;
20324;SDS011;10320;49.482;11.256;2023-04-25T12:22:46;1.70;;;1.53;;
20324;SDS011;10320;49.482;11.256;2023-04-25T12:28:08;1.87;;;1.27;;
20324;SDS011;10320;49.482;11.256;2023-04-25T12:33:20;1.93;;;1.40;;
20324;SDS011;10320;49.482;11.256;2023-04-25T12:35:47;1.60;;;1.40;;
20324;SDS011;10320;49.482;11.256;2023-04-25T12:40:48;1.83;;;1.40;;
20324;SDS011;10320;49.482;11.256;2023-04-25T12:43:14;1.50;;;1.40;;
20324;SDS011;10320;49.482;11.256;2023-04-25T12:45:40;1.63;;;1.53;;
20324;SDS011;10320;49.482;11.256;2023-04-25T12:48:06;1.73;;;1.40;;
20324;SDS011;10320;49.482;11.256;2023-04-25T12:50:31;1.87;;;1.40;;
20324;SDS011;10320;49.482;11.256;2023-04-25T12:52:57;1.57;;;1.30;;
20324;SDS011;10320;49.482;11.256;2023-04-25T12:55:23;1.77;;;1.40;;
20324;SDS011;10320;49.482;11.256;2023-04-25T12:57:49;1.73;;;1.40;;
20324;SDS011;10320;49.482;11.256;2023-04-25T13:00:16;1.67;;;1.47;;
20324;SDS011;10320;49.482;11.256;2023-04-25T13:02:44;1.80;;;1.57;;
20324;SDS011;10320;49.482;11.256;2023-04-25T13:05:11;1.70;;;1.60;;
20324;SDS011;10320;49.482;11.256;2023-04-25T13:07:37;2.60;;;2.40;;
20324;SDS011;10320;49.482;11.256;2023-04-25T13:10:04;2.63;;;1.80;;
20324;SDS011;10320;49.482;11.256;2023-04-25T13:12:30;2.03;;;1.83;;
20324;SDS011;10320;49.482;11.256;2023-04-25T13:14:57;2.60;;;1.93;;
20324;SDS011;10320;49.482;11.256;2023-04-25T13:17:23;2.87;;;1.60;;
20324;SDS011;10320;49.482;11.256;2023-04-25T13:19:49;2.43;;;1.73;;
20324;SDS011;10320;49.482;11.256;2023-04-25T13:22:15;1.93;;;1.70;;
20324;SDS011;10320;49.482;11.256;2023-04-25T13:24:42;2.07;;;1.60;;
20324;SDS011;10320;49.482;11.256;2023-04-25T13:27:08;2.23;;;1.77;;
20324;SDS011;10320;49.482;11.256;2023-04-25T13:29:34;1.90;;;1.70;;
20324;SDS011;10320;49.482;11.256;2023-04-25T13:32:01;1.90;;;1.80;;
20324;SDS011;10320;49.482;11.256;2023-04-25T13:34:29;1.67;;;1.57;;
20324;SDS011;10320;49.482;11.256;2023-04-25T13:36:55;1.70;;;1.60;;
20324;SDS011;10320;49.482;11.256;2023-04-25T13:39:21;2.80;;;1.80;;
20324;SDS011;10320;49.482;11.256;2023-04-25T13:41:47;2.00;;;1.90;;
20324;SDS011;10320;49.482;11.256;2023-04-25T13:44:13;2.30;;;1.90;;
20324;SDS011;10320;49.482;11.256;2023-04-25T13:46:40;2.00;;;1.80;;
20324;SDS011;10320;49.482;11.256;2023-04-25T13:49:06;2.87;;;2.10;;
20324;SDS011;10320;49.482;11.256;2023-04-25T13:51:32;2.10;;;1.90;;
20324;SDS011;10320;49.482;11.256;2023-04-25T13:53:58;1.83;;;1.73;;
20324;SDS011;10320;49.482;11.256;2023-04-25T13:56:24;2.27;;;1.80;;
20324;SDS011;10320;49.482;11.256;2023-04-25T13:58:50;2.47;;;2.00;;
20324;SDS011;10320;49.482;11.256;2023-04-25T14:01:20;2.20;;;2.00;;
20324;SDS011;10320;49.482;11.256;2023-04-25T14:03:46;2.03;;;1.83;;
20324;SDS011;10320;49.482;11.256;2023-04-25T14:06:12;2.20;;;2.00;;
20324;SDS011;10320;49.482;11.256;2023-04-25T14:08:38;2.20;;;2.00;;
20324;SDS011;10320;49.482;11.256;2023-04-25T14:11:05;2.60;;;2.30;;
20324;SDS011;10320;49.482;11.256;2023-04-25T14:13:31;2.10;;;1.90;;
20324;SDS011;10320;49.482;11.256;2023-04-25T14:15:57;1.97;;;1.70;;
20324;SDS011;10320;49.482;11.256;2023-04-25T14:18:23;2.27;;;2.00;;
20324;SDS011;10320;49.482;11.256;2023-04-25T14:20:49;2.10;;;1.90;;
20324;SDS011;10320;49.482;11.256;2023-04-25T14:23:15;3.50;;;2.40;;
20324;SDS011;10320;49.482;11.256;2023-04-25T14:25:42;2.57;;;1.97;;
20324;SDS011;10320;49.482;11.256;2023-04-25T14:28:10;2.37;;;2.07;;
20324;SDS011;10320;49.482;11.256;2023-04-25T14:30:36;3.00;;;2.10;;
20324;SDS011;10320;49.482;11.256;2023-04-25T14:33:02;2.77;;;2.10;;
20324;SDS011;10320;49.482;11.256;2023-04-25T14:35:28;2.20;;;2.00;;
20324;SDS011;10320;49.482;11.256;2023-04-25T14:37:54;2.23;;;2.00;;
20324;SDS011;10320;49.482;11.256;2023-04-25T14:40:21;2.07;;;1.87;;
20324;SDS011;10320;49.482;11.256;2023-04-25T14:42:48;2.77;;;2.20;;
20324;SDS011;10320;49.482;11.256;2023-04-25T14:45:15;2.43;;;2.20;;
20324;SDS011;10320;49.482;11.256;2023-04-25T14:47:41;2.63;;;2.43;;
20324;SDS011;10320;49.482;11.256;2023-04-25T14:50:07;2.50;;;2.30;;
20324;SDS011;10320;49.482;11.256;2023-04-25T14:52:34;2.97;;;2.37;;